sensor_id;sensor_type;location;lat;lon;timestamp;P1;durP1;ratioP1;P2;durP2;ratioP2
5867;SDS011;2960;49.142;7.768;2023-08-24T00:01:37;13.87;;;6.10;;
5867;SDS011;2960;49.142;7.768;2023-08-24T00:04:04;13.80;;;6.70;;
5867;SDS011;2960;49.142;7.768;2023-08-24T00:06:32;13.47;;;6.87;;
5867;SDS011;2960;49.142;7.768;2023-08-24T00:09:00;13.90;;;6.33;;
5867;SDS011;2960;49.142;7.768;2023-08-24T00:11:30;13.30;;;6.23;;
5867;SDS011;2960;49.142;7.768;2023-08-24T00:14:00;13.60;;;6.83;;
5867;SDS011;2960;49.142;7.768;2023-08-24T00:16:28;12.83;;;6.13;;
5867;SDS011;2960;49.142;7.768;2023-08-24T00:18:55;12.83;;;6.13;;
5867;SDS011;2960;49.142;7.768;2023-08-24T00:21:22;13.63;;;6.37;;
5867;SDS011;2960;49.142;7.768;2023-08-24T00:23:49;13.30;;;6.43;;
5867;SDS011;2960;49.142;7.768;2023-08-24T00:26:19;13.40;;;6.70;;
5867;SDS011;2960;49.142;7.768;2023-08-24T00:28:46;14.13;;;6.07;;
5867;SDS011;2960;49.142;7.768;2023-08-24T00:31:16;14.40;;;7.00;;
5867;SDS011;2960;49.142;7.768;2023-08-24T00:33:44;14.93;;;7.10;;
5867;SDS011;2960;49.142;7.768;2023-08-24T00:36:11;13.83;;;6.93;;
5867;SDS011;2960;49.142;7.768;2023-08-24T00:38:38;13.60;;;7.00;;
5867;SDS011;2960;49.142;7.768;2023-08-24T00:41:07;14.90;;;7.17;;
5867;SDS011;2960;49.142;7.768;2023-08-24T00:43:34;13.70;;;6.40;;
5867;SDS011;2960;49.142;7.768;2023-08-24T00:46:02;13.30;;;6.40;;
5867;SDS011;2960;49.142;7.768;2023-08-24T00:48:31;13.73;;;6.37;;
5867;SDS011;2960;49.142;7.768;2023-08-24T00:50:59;13.63;;;6.47;;
5867;SDS011;2960;49.142;7.768;2023-08-24T00:53:29;13.93;;;6.67;;
5867;SDS011;2960;49.142;7.768;2023-08-24T00:55:57;14.10;;;6.90;;
5867;SDS011;2960;49.142;7.768;2023-08-24T00:58:25;13.30;;;6.33;;
5867;SDS011;2960;49.142;7.768;2023-08-24T01:00:53;13.53;;;6.73;;
5867;SDS011;2960;49.142;7.768;2023-08-24T01:03:22;14.07;;;6.70;;
5867;SDS011;2960;49.142;7.768;2023-08-24T01:05:51;12.83;;;6.33;;
5867;SDS011;2960;49.142;7.768;2023-08-24T01:08:18;15.20;;;7.30;;
5867;SDS011;2960;49.142;7.768;2023-08-24T01:10:48;14.13;;;6.60;;
5867;SDS011;2960;49.142;7.768;2023-08-24T01:13:27;13.10;;;6.40;;
5867;SDS011;2960;49.142;7.768;2023-08-24T01:16:00;12.83;;;6.30;;
5867;SDS011;2960;49.142;7.768;2023-08-24T01:18:36;13.93;;;6.70;;
5867;SDS011;2960;49.142;7.768;2023-08-24T01:21:05;13.50;;;6.40;;
5867;SDS011;2960;49.142;7.768;2023-08-24T01:23:34;12.90;;;6.47;;
5867;SDS011;2960;49.142;7.768;2023-08-24T01:26:11;13.17;;;6.03;;
5867;SDS011;2960;49.142;7.768;2023-08-24T01:28:40;13.77;;;6.53;;
5867;SDS011;2960;49.142;7.768;2023-08-24T01:31:10;13.20;;;6.30;;
5867;SDS011;2960;49.142;7.768;2023-08-24T01:33:39;13.70;;;6.80;;
5867;SDS011;2960;49.142;7.768;2023-08-24T01:36:07;13.57;;;6.40;;
5867;SDS011;2960;49.142;7.768;2023-08-24T01:38:35;14.47;;;6.73;;
5867;SDS011;2960;49.142;7.768;2023-08-24T01:41:05;14.57;;;6.77;;
5867;SDS011;2960;49.142;7.768;2023-08-24T01:43:39;13.73;;;6.73;;
5867;SDS011;2960;49.142;7.768;2023-08-24T01:46:10;13.60;;;6.60;;
5867;SDS011;2960;49.142;7.768;2023-08-24T01:48:41;12.97;;;6.00;;
5867;SDS011;2960;49.142;7.768;2023-08-24T01:51:09;13.20;;;6.57;;
5867;SDS011;2960;49.142;7.768;2023-08-24T01:53:37;13.40;;;6.53;;
5867;SDS011;2960;49.142;7.768;2023-08-24T01:56:09;13.43;;;6.80;;
5867;SDS011;2960;49.142;7.768;2023-08-24T01:58:38;13.20;;;6.43;;
5867;SDS011;2960;49.142;7.768;2023-08-24T02:01:05;13.50;;;6.20;;
5867;SDS011;2960;49.142;7.768;2023-08-24T02:03:35;16.37;;;6.57;;
5867;SDS011;2960;49.142;7.768;2023-08-24T02:06:04;13.23;;;6.40;;
5867;SDS011;2960;49.142;7.768;2023-08-24T02:08:32;13.03;;;6.23;;
5867;SDS011;2960;49.142;7.768;2023-08-24T02:10:59;13.00;;;6.03;;
5867;SDS011;2960;49.142;7.768;2023-08-24T02:13:27;13.37;;;6.20;;
5867;SDS011;2960;49.142;7.768;2023-08-24T02:16:00;13.77;;;6.50;;
5867;SDS011;2960;49.142;7.768;2023-08-24T02:18:29;13.10;;;6.30;;
5867;SDS011;2960;49.142;7.768;2023-08-24T02:20:56;13.90;;;6.57;;
5867;SDS011;2960;49.142;7.768;2023-08-24T02:23:23;13.07;;;6.10;;
5867;SDS011;2960;49.142;7.768;2023-08-24T02:25:50;12.73;;;5.90;;
5867;SDS011;2960;49.142;7.768;2023-08-24T02:28:17;13.50;;;6.57;;
5867;SDS011;2960;49.142;7.768;2023-08-24T02:30:46;13.20;;;6.63;;
5867;SDS011;2960;49.142;7.768;2023-08-24T02:33:13;13.70;;;6.60;;
5867;SDS011;2960;49.142;7.768;2023-08-24T02:35:40;13.50;;;6.60;;
5867;SDS011;2960;49.142;7.768;2023-08-24T02:38:08;12.83;;;6.23;;
5867;SDS011;2960;49.142;7.768;2023-08-24T02:40:35;13.43;;;5.90;;
5867;SDS011;2960;49.142;7.768;2023-08-24T02:43:03;13.00;;;6.10;;
5867;SDS011;2960;49.142;7.768;2023-08-24T02:45:30;13.60;;;5.60;;
5867;SDS011;2960;49.142;7.768;2023-08-24T02:47:58;12.67;;;5.60;;
5867;SDS011;2960;49.142;7.768;2023-08-24T02:50:26;14.20;;;6.20;;
5867;SDS011;2960;49.142;7.768;2023-08-24T02:52:53;13.23;;;6.13;;
5867;SDS011;2960;49.142;7.768;2023-08-24T02:55:20;13.50;;;5.87;;
5867;SDS011;2960;49.142;7.768;2023-08-24T02:57:50;13.60;;;6.00;;
5867;SDS011;2960;49.142;7.768;2023-08-24T03:00:17;13.03;;;5.60;;
5867;SDS011;2960;49.142;7.768;2023-08-24T03:02:44;13.40;;;6.17;;
5867;SDS011;2960;49.142;7.768;2023-08-24T03:05:15;13.40;;;5.73;;
5867;SDS011;2960;49.142;7.768;2023-08-24T03:07:42;13.20;;;6.17;;
5867;SDS011;2960;49.142;7.768;2023-08-24T03:10:10;14.63;;;6.33;;
5867;SDS011;2960;49.142;7.768;2023-08-24T03:12:37;13.57;;;6.67;;
5867;SDS011;2960;49.142;7.768;2023-08-24T03:15:04;13.50;;;6.40;;
5867;SDS011;2960;49.142;7.768;2023-08-24T03:17:33;12.50;;;5.40;;
5867;SDS011;2960;49.142;7.768;2023-08-24T03:20:00;13.40;;;6.20;;
5867;SDS011;2960;49.142;7.768;2023-08-24T03:22:29;13.67;;;6.03;;
5867;SDS011;2960;49.142;7.768;2023-08-24T03:24:56;12.33;;;5.80;;
5867;SDS011;2960;49.142;7.768;2023-08-24T03:27:23;13.47;;;5.83;;
5867;SDS011;2960;49.142;7.768;2023-08-24T03:29:51;12.87;;;5.90;;
5867;SDS011;2960;49.142;7.768;2023-08-24T03:32:19;13.73;;;6.33;;
5867;SDS011;2960;49.142;7.768;2023-08-24T03:34:46;13.43;;;6.23;;
5867;SDS011;2960;49.142;7.768;2023-08-24T03:37:13;13.40;;;6.20;;
5867;SDS011;2960;49.142;7.768;2023-08-24T03:39:42;12.40;;;5.63;;
5867;SDS011;2960;49.142;7.768;2023-08-24T03:42:09;13.10;;;5.60;;
5867;SDS011;2960;49.142;7.768;2023-08-24T03:44:36;12.63;;;5.73;;
5867;SDS011;2960;49.142;7.768;2023-08-24T03:47:03;12.67;;;5.90;;
5867;SDS011;2960;49.142;7.768;2023-08-24T03:49:30;12.90;;;5.80;;
5867;SDS011;2960;49.142;7.768;2023-08-24T03:51:57;13.40;;;5.77;;
5867;SDS011;2960;49.142;7.768;2023-08-24T03:54:24;13.17;;;5.80;;
5867;SDS011;2960;49.142;7.768;2023-08-24T03:56:54;15.07;;;5.97;;
5867;SDS011;2960;49.142;7.768;2023-08-24T03:59:21;13.40;;;5.73;;
5867;SDS011;2960;49.142;7.768;2023-08-24T04:01:48;14.17;;;6.03;;
5867;SDS011;2960;49.142;7.768;2023-08-24T04:04:15;13.30;;;5.97;;
5867;SDS011;2960;49.142;7.768;2023-08-24T04:06:44;13.63;;;6.07;;
5867;SDS011;2960;49.142;7.768;2023-08-24T04:09:11;13.23;;;5.70;;
5867;SDS011;2960;49.142;7.768;2023-08-24T04:11:39;13.87;;;6.00;;
5867;SDS011;2960;49.142;7.768;2023-08-24T04:14:07;12.43;;;5.70;;
5867;SDS011;2960;49.142;7.768;2023-08-24T04:16:34;13.33;;;6.10;;
5867;SDS011;2960;49.142;7.768;2023-08-24T04:19:01;13.30;;;6.03;;
5867;SDS011;2960;49.142;7.768;2023-08-24T04:21:28;12.67;;;5.60;;
5867;SDS011;2960;49.142;7.768;2023-08-24T04:23:56;12.73;;;5.70;;
5867;SDS011;2960;49.142;7.768;2023-08-24T04:26:25;13.23;;;5.50;;
5867;SDS011;2960;49.142;7.768;2023-08-24T04:28:53;12.80;;;5.63;;
5867;SDS011;2960;49.142;7.768;2023-08-24T04:31:21;12.73;;;5.27;;
5867;SDS011;2960;49.142;7.768;2023-08-24T04:33:48;13.10;;;5.87;;
5867;SDS011;2960;49.142;7.768;2023-08-24T04:36:15;12.30;;;4.80;;
5867;SDS011;2960;49.142;7.768;2023-08-24T04:38:43;12.60;;;5.40;;
5867;SDS011;2960;49.142;7.768;2023-08-24T04:41:10;12.67;;;5.10;;
5867;SDS011;2960;49.142;7.768;2023-08-24T04:43:37;12.80;;;5.40;;
5867;SDS011;2960;49.142;7.768;2023-08-24T04:46:05;12.90;;;5.47;;
5867;SDS011;2960;49.142;7.768;2023-08-24T04:48:33;12.93;;;4.90;;
5867;SDS011;2960;49.142;7.768;2023-08-24T04:51:01;13.97;;;5.40;;
5867;SDS011;2960;49.142;7.768;2023-08-24T04:53:28;13.33;;;5.40;;
5867;SDS011;2960;49.142;7.768;2023-08-24T04:55:55;12.70;;;5.40;;
5867;SDS011;2960;49.142;7.768;2023-08-24T04:58:23;25.03;;;5.43;;
5867;SDS011;2960;49.142;7.768;2023-08-24T05:00:50;12.70;;;5.40;;
5867;SDS011;2960;49.142;7.768;2023-08-24T05:03:17;12.60;;;5.30;;
5867;SDS011;2960;49.142;7.768;2023-08-24T05:05:47;12.97;;;5.30;;
5867;SDS011;2960;49.142;7.768;2023-08-24T05:08:14;13.50;;;5.80;;
5867;SDS011;2960;49.142;7.768;2023-08-24T05:10:41;12.60;;;5.57;;
5867;SDS011;2960;49.142;7.768;2023-08-24T05:13:09;12.53;;;5.43;;
5867;SDS011;2960;49.142;7.768;2023-08-24T05:15:36;13.30;;;5.53;;
5867;SDS011;2960;49.142;7.768;2023-08-24T05:18:03;13.07;;;6.00;;
5867;SDS011;2960;49.142;7.768;2023-08-24T05:20:31;12.43;;;5.20;;
5867;SDS011;2960;49.142;7.768;2023-08-24T05:23:00;12.53;;;5.23;;
5867;SDS011;2960;49.142;7.768;2023-08-24T05:25:27;13.83;;;5.90;;
5867;SDS011;2960;49.142;7.768;2023-08-24T05:27:54;13.37;;;5.60;;
5867;SDS011;2960;49.142;7.768;2023-08-24T05:30:21;12.80;;;5.87;;
5867;SDS011;2960;49.142;7.768;2023-08-24T05:32:49;13.30;;;5.57;;
5867;SDS011;2960;49.142;7.768;2023-08-24T05:35:16;12.93;;;5.90;;
5867;SDS011;2960;49.142;7.768;2023-08-24T05:37:43;13.63;;;5.97;;
5867;SDS011;2960;49.142;7.768;2023-08-24T05:40:12;13.80;;;5.80;;
5867;SDS011;2960;49.142;7.768;2023-08-24T05:42:39;13.40;;;5.63;;
5867;SDS011;2960;49.142;7.768;2023-08-24T05:45:06;14.10;;;5.73;;
5867;SDS011;2960;49.142;7.768;2023-08-24T05:47:34;12.87;;;5.03;;
5867;SDS011;2960;49.142;7.768;2023-08-24T05:50:01;12.73;;;5.23;;
5867;SDS011;2960;49.142;7.768;2023-08-24T05:52:29;13.33;;;5.87;;
5867;SDS011;2960;49.142;7.768;2023-08-24T05:54:56;13.00;;;5.83;;
5867;SDS011;2960;49.142;7.768;2023-08-24T05:57:24;13.33;;;5.60;;
5867;SDS011;2960;49.142;7.768;2023-08-24T05:59:54;13.40;;;6.00;;
5867;SDS011;2960;49.142;7.768;2023-08-24T06:02:21;13.13;;;5.50;;
5867;SDS011;2960;49.142;7.768;2023-08-24T06:04:51;13.07;;;5.80;;
5867;SDS011;2960;49.142;7.768;2023-08-24T06:07:18;13.70;;;5.53;;
5867;SDS011;2960;49.142;7.768;2023-08-24T06:09:46;12.97;;;5.50;;
5867;SDS011;2960;49.142;7.768;2023-08-24T06:12:13;13.00;;;5.50;;
5867;SDS011;2960;49.142;7.768;2023-08-24T06:14:42;12.87;;;5.23;;
5867;SDS011;2960;49.142;7.768;2023-08-24T06:17:09;13.10;;;6.00;;
5867;SDS011;2960;49.142;7.768;2023-08-24T06:19:36;12.37;;;5.33;;
5867;SDS011;2960;49.142;7.768;2023-08-24T06:22:03;13.30;;;5.30;;
5867;SDS011;2960;49.142;7.768;2023-08-24T06:24:31;13.07;;;5.57;;
5867;SDS011;2960;49.142;7.768;2023-08-24T06:26:58;12.93;;;5.37;;
5867;SDS011;2960;49.142;7.768;2023-08-24T06:29:27;13.30;;;5.70;;
5867;SDS011;2960;49.142;7.768;2023-08-24T06:31:56;12.77;;;5.67;;
5867;SDS011;2960;49.142;7.768;2023-08-24T06:34:23;12.60;;;5.70;;
5867;SDS011;2960;49.142;7.768;2023-08-24T06:36:50;13.33;;;5.93;;
5867;SDS011;2960;49.142;7.768;2023-08-24T06:39:19;12.40;;;5.20;;
5867;SDS011;2960;49.142;7.768;2023-08-24T06:41:46;13.10;;;5.90;;
5867;SDS011;2960;49.142;7.768;2023-08-24T06:44:13;13.60;;;6.10;;
5867;SDS011;2960;49.142;7.768;2023-08-24T06:46:40;13.20;;;5.37;;
5867;SDS011;2960;49.142;7.768;2023-08-24T06:49:09;13.40;;;5.80;;
5867;SDS011;2960;49.142;7.768;2023-08-24T06:51:36;13.40;;;6.10;;
5867;SDS011;2960;49.142;7.768;2023-08-24T06:54:03;12.63;;;5.77;;
5867;SDS011;2960;49.142;7.768;2023-08-24T06:56:30;12.50;;;5.40;;
5867;SDS011;2960;49.142;7.768;2023-08-24T06:58:57;13.27;;;6.30;;
5867;SDS011;2960;49.142;7.768;2023-08-24T07:01:24;13.37;;;6.23;;
5867;SDS011;2960;49.142;7.768;2023-08-24T07:03:51;12.70;;;5.80;;
5867;SDS011;2960;49.142;7.768;2023-08-24T07:06:20;13.13;;;5.97;;
5867;SDS011;2960;49.142;7.768;2023-08-24T07:08:47;13.17;;;6.07;;
5867;SDS011;2960;49.142;7.768;2023-08-24T07:11:15;13.37;;;6.80;;
5867;SDS011;2960;49.142;7.768;2023-08-24T07:13:42;14.40;;;6.10;;
5867;SDS011;2960;49.142;7.768;2023-08-24T07:16:10;12.73;;;5.87;;
5867;SDS011;2960;49.142;7.768;2023-08-24T07:18:37;13.37;;;6.10;;
5867;SDS011;2960;49.142;7.768;2023-08-24T07:21:04;13.20;;;6.30;;
5867;SDS011;2960;49.142;7.768;2023-08-24T07:23:32;12.40;;;5.90;;
5867;SDS011;2960;49.142;7.768;2023-08-24T07:25:59;13.37;;;6.50;;
5867;SDS011;2960;49.142;7.768;2023-08-24T07:28:26;12.57;;;5.90;;
5867;SDS011;2960;49.142;7.768;2023-08-24T07:30:53;12.97;;;6.30;;
5867;SDS011;2960;49.142;7.768;2023-08-24T07:33:21;12.67;;;5.77;;
5867;SDS011;2960;49.142;7.768;2023-08-24T07:35:48;12.50;;;6.10;;
5867;SDS011;2960;49.142;7.768;2023-08-24T07:38:15;12.97;;;6.40;;
5867;SDS011;2960;49.142;7.768;2023-08-24T07:40:44;12.60;;;6.20;;
5867;SDS011;2960;49.142;7.768;2023-08-24T07:43:11;12.43;;;6.00;;
5867;SDS011;2960;49.142;7.768;2023-08-24T07:45:38;13.57;;;5.67;;
5867;SDS011;2960;49.142;7.768;2023-08-24T07:48:06;12.60;;;6.00;;
5867;SDS011;2960;49.142;7.768;2023-08-24T07:50:33;12.13;;;5.60;;
5867;SDS011;2960;49.142;7.768;2023-08-24T07:53:00;12.47;;;6.00;;
5867;SDS011;2960;49.142;7.768;2023-08-24T07:55:28;12.40;;;6.10;;
5867;SDS011;2960;49.142;7.768;2023-08-24T07:57:56;12.70;;;6.33;;
5867;SDS011;2960;49.142;7.768;2023-08-24T08:00:23;13.00;;;6.10;;
5867;SDS011;2960;49.142;7.768;2023-08-24T08:02:51;12.87;;;6.20;;
5867;SDS011;2960;49.142;7.768;2023-08-24T08:05:18;12.70;;;6.40;;
5867;SDS011;2960;49.142;7.768;2023-08-24T08:07:45;12.60;;;6.10;;
5867;SDS011;2960;49.142;7.768;2023-08-24T08:10:12;12.40;;;6.10;;
5867;SDS011;2960;49.142;7.768;2023-08-24T08:12:40;12.80;;;6.40;;
5867;SDS011;2960;49.142;7.768;2023-08-24T08:15:09;13.10;;;6.10;;
5867;SDS011;2960;49.142;7.768;2023-08-24T08:17:36;12.40;;;6.07;;
5867;SDS011;2960;49.142;7.768;2023-08-24T08:20:03;12.40;;;6.30;;
5867;SDS011;2960;49.142;7.768;2023-08-24T08:22:35;12.50;;;5.80;;
5867;SDS011;2960;49.142;7.768;2023-08-24T08:25:04;12.90;;;5.97;;
5867;SDS011;2960;49.142;7.768;2023-08-24T08:27:32;12.67;;;6.27;;
5867;SDS011;2960;49.142;7.768;2023-08-24T08:29:59;12.30;;;6.00;;
5867;SDS011;2960;49.142;7.768;2023-08-24T08:32:31;12.30;;;6.10;;
5867;SDS011;2960;49.142;7.768;2023-08-24T08:34:58;12.60;;;6.13;;
5867;SDS011;2960;49.142;7.768;2023-08-24T08:37:26;12.70;;;6.40;;
5867;SDS011;2960;49.142;7.768;2023-08-24T08:39:54;11.87;;;5.90;;
5867;SDS011;2960;49.142;7.768;2023-08-24T08:42:22;12.07;;;5.90;;
5867;SDS011;2960;49.142;7.768;2023-08-24T08:44:49;12.60;;;5.63;;
5867;SDS011;2960;49.142;7.768;2023-08-24T08:47:19;12.53;;;5.70;;
5867;SDS011;2960;49.142;7.768;2023-08-24T08:49:49;12.20;;;6.00;;
5867;SDS011;2960;49.142;7.768;2023-08-24T08:52:16;11.67;;;5.60;;
5867;SDS011;2960;49.142;7.768;2023-08-24T08:54:44;13.70;;;5.90;;
5867;SDS011;2960;49.142;7.768;2023-08-24T08:57:11;12.77;;;6.30;;
5867;SDS011;2960;49.142;7.768;2023-08-24T08:59:39;12.13;;;5.67;;
5867;SDS011;2960;49.142;7.768;2023-08-24T09:02:07;13.10;;;5.73;;
5867;SDS011;2960;49.142;7.768;2023-08-24T09:04:41;21.40;;;5.90;;
5867;SDS011;2960;49.142;7.768;2023-08-24T09:07:13;12.00;;;5.50;;
5867;SDS011;2960;49.142;7.768;2023-08-24T09:09:41;11.87;;;5.37;;
5867;SDS011;2960;49.142;7.768;2023-08-24T09:12:09;11.53;;;5.70;;
5867;SDS011;2960;49.142;7.768;2023-08-24T09:14:36;12.00;;;5.53;;
5867;SDS011;2960;49.142;7.768;2023-08-24T09:17:04;12.10;;;5.63;;
5867;SDS011;2960;49.142;7.768;2023-08-24T09:19:32;12.83;;;5.80;;
5867;SDS011;2960;49.142;7.768;2023-08-24T09:22:01;11.47;;;5.30;;
5867;SDS011;2960;49.142;7.768;2023-08-24T09:24:30;11.43;;;5.30;;
5867;SDS011;2960;49.142;7.768;2023-08-24T09:26:58;12.67;;;5.67;;
5867;SDS011;2960;49.142;7.768;2023-08-24T09:29:26;11.87;;;5.47;;
5867;SDS011;2960;49.142;7.768;2023-08-24T09:31:53;12.20;;;5.83;;
5867;SDS011;2960;49.142;7.768;2023-08-24T09:34:22;14.03;;;6.00;;
5867;SDS011;2960;49.142;7.768;2023-08-24T09:36:52;12.53;;;6.00;;
5867;SDS011;2960;49.142;7.768;2023-08-24T09:39:20;11.90;;;5.90;;
5867;SDS011;2960;49.142;7.768;2023-08-24T09:41:50;12.00;;;5.57;;
5867;SDS011;2960;49.142;7.768;2023-08-24T09:44:18;12.13;;;6.10;;
5867;SDS011;2960;49.142;7.768;2023-08-24T09:46:46;12.97;;;5.97;;
5867;SDS011;2960;49.142;7.768;2023-08-24T09:49:13;12.77;;;5.73;;
5867;SDS011;2960;49.142;7.768;2023-08-24T09:51:41;11.93;;;5.60;;
5867;SDS011;2960;49.142;7.768;2023-08-24T09:54:10;11.83;;;5.70;;
5867;SDS011;2960;49.142;7.768;2023-08-24T15:00:42;13.07;;;5.20;;
5867;SDS011;2960;49.142;7.768;2023-08-24T15:03:10;12.10;;;5.20;;
5867;SDS011;2960;49.142;7.768;2023-08-24T15:05:38;12.60;;;5.27;;
5867;SDS011;2960;49.142;7.768;2023-08-24T15:08:10;12.47;;;5.80;;
5867;SDS011;2960;49.142;7.768;2023-08-24T15:10:37;12.00;;;5.27;;
5867;SDS011;2960;49.142;7.768;2023-08-24T15:13:04;13.57;;;5.63;;
5867;SDS011;2960;49.142;7.768;2023-08-24T15:15:34;13.13;;;5.67;;
5867;SDS011;2960;49.142;7.768;2023-08-24T15:18:04;12.30;;;5.60;;
5867;SDS011;2960;49.142;7.768;2023-08-24T15:20:31;11.87;;;5.10;;
5867;SDS011;2960;49.142;7.768;2023-08-24T15:23:00;12.30;;;5.40;;
5867;SDS011;2960;49.142;7.768;2023-08-24T15:25:27;13.87;;;5.70;;
5867;SDS011;2960;49.142;7.768;2023-08-24T15:27:54;12.73;;;5.67;;
5867;SDS011;2960;49.142;7.768;2023-08-24T15:30:21;13.00;;;5.53;;
5867;SDS011;2960;49.142;7.768;2023-08-24T15:32:48;14.30;;;4.90;;
5867;SDS011;2960;49.142;7.768;2023-08-24T15:35:17;11.90;;;4.73;;
5867;SDS011;2960;49.142;7.768;2023-08-24T15:37:44;11.93;;;4.97;;
5867;SDS011;2960;49.142;7.768;2023-08-24T15:40:11;14.13;;;4.80;;
5867;SDS011;2960;49.142;7.768;2023-08-24T15:42:38;11.87;;;4.73;;
5867;SDS011;2960;49.142;7.768;2023-08-24T15:45:06;11.80;;;4.90;;
5867;SDS011;2960;49.142;7.768;2023-08-24T15:47:34;12.20;;;5.00;;
5867;SDS011;2960;49.142;7.768;2023-08-24T15:50:01;12.30;;;5.27;;
5867;SDS011;2960;49.142;7.768;2023-08-24T15:52:30;12.67;;;5.40;;
5867;SDS011;2960;49.142;7.768;2023-08-24T15:54:57;12.00;;;5.20;;
5867;SDS011;2960;49.142;7.768;2023-08-24T15:57:24;12.17;;;5.20;;
5867;SDS011;2960;49.142;7.768;2023-08-24T15:59:51;16.47;;;6.07;;
5867;SDS011;2960;49.142;7.768;2023-08-24T16:02:18;12.50;;;5.60;;
5867;SDS011;2960;49.142;7.768;2023-08-24T16:04:45;13.53;;;5.80;;
5867;SDS011;2960;49.142;7.768;2023-08-24T16:07:12;13.53;;;5.80;;
5867;SDS011;2960;49.142;7.768;2023-08-24T16:09:41;13.70;;;6.30;;
5867;SDS011;2960;49.142;7.768;2023-08-24T16:12:08;13.40;;;6.23;;
5867;SDS011;2960;49.142;7.768;2023-08-24T16:14:35;15.90;;;5.90;;
5867;SDS011;2960;49.142;7.768;2023-08-24T16:17:02;14.17;;;5.90;;
5867;SDS011;2960;49.142;7.768;2023-08-24T16:19:29;13.20;;;5.70;;
5867;SDS011;2960;49.142;7.768;2023-08-24T16:21:56;13.27;;;5.93;;
5867;SDS011;2960;49.142;7.768;2023-08-24T16:24:25;12.67;;;5.73;;
5867;SDS011;2960;49.142;7.768;2023-08-24T16:26:54;13.00;;;5.70;;
5867;SDS011;2960;49.142;7.768;2023-08-24T16:29:21;12.70;;;5.90;;
5867;SDS011;2960;49.142;7.768;2023-08-24T16:31:48;13.47;;;6.20;;
5867;SDS011;2960;49.142;7.768;2023-08-24T16:34:15;13.00;;;6.37;;
5867;SDS011;2960;49.142;7.768;2023-08-24T16:36:42;15.60;;;5.50;;
5867;SDS011;2960;49.142;7.768;2023-08-24T16:39:09;12.70;;;5.73;;
5867;SDS011;2960;49.142;7.768;2023-08-24T16:41:36;13.30;;;5.70;;
5867;SDS011;2960;49.142;7.768;2023-08-24T16:44:05;13.80;;;5.87;;
5867;SDS011;2960;49.142;7.768;2023-08-24T16:46:32;13.37;;;6.30;;
5867;SDS011;2960;49.142;7.768;2023-08-24T16:48:59;13.63;;;6.33;;
5867;SDS011;2960;49.142;7.768;2023-08-24T16:51:26;14.00;;;6.63;;
5867;SDS011;2960;49.142;7.768;2023-08-24T16:53:53;14.20;;;6.80;;
5867;SDS011;2960;49.142;7.768;2023-08-24T16:56:20;14.67;;;6.80;;
5867;SDS011;2960;49.142;7.768;2023-08-24T16:58:48;14.10;;;6.30;;
5867;SDS011;2960;49.142;7.768;2023-08-24T17:01:16;15.83;;;7.00;;
5867;SDS011;2960;49.142;7.768;2023-08-24T17:03:43;14.93;;;6.53;;
5867;SDS011;2960;49.142;7.768;2023-08-24T17:06:11;15.20;;;7.60;;
5867;SDS011;2960;49.142;7.768;2023-08-24T17:08:38;14.10;;;6.53;;
5867;SDS011;2960;49.142;7.768;2023-08-24T17:11:05;13.13;;;6.40;;
5867;SDS011;2960;49.142;7.768;2023-08-24T17:13:32;14.63;;;6.33;;
5867;SDS011;2960;49.142;7.768;2023-08-24T17:15:59;14.30;;;6.07;;
5867;SDS011;2960;49.142;7.768;2023-08-24T17:18:28;14.50;;;6.53;;
5867;SDS011;2960;49.142;7.768;2023-08-24T17:20:55;14.07;;;6.80;;
5867;SDS011;2960;49.142;7.768;2023-08-24T17:23:22;13.30;;;6.67;;
5867;SDS011;2960;49.142;7.768;2023-08-24T17:25:49;15.07;;;6.53;;
5867;SDS011;2960;49.142;7.768;2023-08-24T17:28:16;15.03;;;7.10;;
5867;SDS011;2960;49.142;7.768;2023-08-24T17:30:46;14.30;;;6.60;;
5867;SDS011;2960;49.142;7.768;2023-08-24T17:33:13;14.60;;;6.50;;
5867;SDS011;2960;49.142;7.768;2023-08-24T17:35:42;15.90;;;7.13;;
5867;SDS011;2960;49.142;7.768;2023-08-24T17:38:09;14.43;;;6.77;;
5867;SDS011;2960;49.142;7.768;2023-08-24T17:40:36;13.53;;;6.67;;
5867;SDS011;2960;49.142;7.768;2023-08-24T17:43:04;14.60;;;7.10;;
5867;SDS011;2960;49.142;7.768;2023-08-24T17:45:31;13.17;;;6.63;;
5867;SDS011;2960;49.142;7.768;2023-08-24T17:47:58;13.10;;;6.20;;
5867;SDS011;2960;49.142;7.768;2023-08-24T17:50:25;14.50;;;6.83;;
5867;SDS011;2960;49.142;7.768;2023-08-24T17:52:54;13.50;;;6.00;;
5867;SDS011;2960;49.142;7.768;2023-08-24T17:55:21;14.20;;;6.47;;
5867;SDS011;2960;49.142;7.768;2023-08-24T17:57:49;13.10;;;6.10;;
5867;SDS011;2960;49.142;7.768;2023-08-24T18:00:17;13.60;;;6.63;;
5867;SDS011;2960;49.142;7.768;2023-08-24T18:02:44;14.73;;;6.90;;
5867;SDS011;2960;49.142;7.768;2023-08-24T18:05:11;14.70;;;6.70;;
5867;SDS011;2960;49.142;7.768;2023-08-24T18:07:38;13.83;;;6.80;;
5867;SDS011;2960;49.142;7.768;2023-08-24T18:10:07;15.00;;;6.70;;
5867;SDS011;2960;49.142;7.768;2023-08-24T18:12:35;14.00;;;6.50;;
5867;SDS011;2960;49.142;7.768;2023-08-24T18:15:02;14.80;;;5.80;;
5867;SDS011;2960;49.142;7.768;2023-08-24T18:17:30;14.80;;;6.70;;
5867;SDS011;2960;49.142;7.768;2023-08-24T18:19:57;13.70;;;6.23;;
5867;SDS011;2960;49.142;7.768;2023-08-24T18:22:24;15.30;;;6.70;;
5867;SDS011;2960;49.142;7.768;2023-08-24T18:24:51;17.07;;;6.63;;
5867;SDS011;2960;49.142;7.768;2023-08-24T18:27:20;15.23;;;6.97;;
5867;SDS011;2960;49.142;7.768;2023-08-24T18:29:47;16.13;;;7.00;;
5867;SDS011;2960;49.142;7.768;2023-08-24T18:32:14;14.50;;;6.70;;
5867;SDS011;2960;49.142;7.768;2023-08-24T18:34:41;13.53;;;6.40;;
5867;SDS011;2960;49.142;7.768;2023-08-24T18:37:08;13.20;;;6.33;;
5867;SDS011;2960;49.142;7.768;2023-08-24T18:39:35;14.87;;;6.70;;
5867;SDS011;2960;49.142;7.768;2023-08-24T18:42:03;13.40;;;6.27;;
5867;SDS011;2960;49.142;7.768;2023-08-24T18:44:32;14.67;;;6.70;;
5867;SDS011;2960;49.142;7.768;2023-08-24T18:47:00;14.03;;;6.30;;
5867;SDS011;2960;49.142;7.768;2023-08-24T18:49:27;13.30;;;6.47;;
5867;SDS011;2960;49.142;7.768;2023-08-24T18:51:54;17.07;;;6.67;;
5867;SDS011;2960;49.142;7.768;2023-08-24T18:54:21;14.73;;;7.00;;
5867;SDS011;2960;49.142;7.768;2023-08-24T18:56:49;14.50;;;6.30;;
5867;SDS011;2960;49.142;7.768;2023-08-24T18:59:16;15.00;;;6.27;;
5867;SDS011;2960;49.142;7.768;2023-08-24T19:01:46;14.00;;;6.67;;
5867;SDS011;2960;49.142;7.768;2023-08-24T19:04:14;14.40;;;6.53;;
5867;SDS011;2960;49.142;7.768;2023-08-24T19:06:41;13.80;;;6.40;;
5867;SDS011;2960;49.142;7.768;2023-08-24T19:09:08;15.50;;;6.73;;
5867;SDS011;2960;49.142;7.768;2023-08-24T19:11:35;13.97;;;6.70;;
5867;SDS011;2960;49.142;7.768;2023-08-24T19:14:02;14.07;;;6.63;;
5867;SDS011;2960;49.142;7.768;2023-08-24T19:16:29;13.63;;;6.80;;
5867;SDS011;2960;49.142;7.768;2023-08-24T19:18:58;15.10;;;7.07;;
5867;SDS011;2960;49.142;7.768;2023-08-24T19:21:25;14.00;;;6.83;;
5867;SDS011;2960;49.142;7.768;2023-08-24T19:23:53;13.80;;;6.80;;
5867;SDS011;2960;49.142;7.768;2023-08-24T19:26:20;13.43;;;6.70;;
5867;SDS011;2960;49.142;7.768;2023-08-24T19:28:47;13.70;;;6.80;;
5867;SDS011;2960;49.142;7.768;2023-08-24T19:31:15;13.57;;;6.50;;
5867;SDS011;2960;49.142;7.768;2023-08-24T19:33:42;13.60;;;7.03;;
5867;SDS011;2960;49.142;7.768;2023-08-24T19:36:11;13.83;;;6.80;;
5867;SDS011;2960;49.142;7.768;2023-08-24T19:38:38;14.60;;;7.00;;
5867;SDS011;2960;49.142;7.768;2023-08-24T19:41:06;13.40;;;6.17;;
5867;SDS011;2960;49.142;7.768;2023-08-24T19:43:33;13.57;;;6.57;;
5867;SDS011;2960;49.142;7.768;2023-08-24T19:46:00;13.07;;;6.30;;
5867;SDS011;2960;49.142;7.768;2023-08-24T19:48:27;14.73;;;6.80;;
5867;SDS011;2960;49.142;7.768;2023-08-24T19:50:55;13.47;;;6.30;;
5867;SDS011;2960;49.142;7.768;2023-08-24T19:53:24;13.60;;;6.77;;
5867;SDS011;2960;49.142;7.768;2023-08-24T19:55:51;13.97;;;7.03;;
5867;SDS011;2960;49.142;7.768;2023-08-24T19:58:18;16.23;;;7.17;;
5867;SDS011;2960;49.142;7.768;2023-08-24T20:00:45;14.10;;;6.17;;
5867;SDS011;2960;49.142;7.768;2023-08-24T20:03:12;14.40;;;6.57;;
5867;SDS011;2960;49.142;7.768;2023-08-24T20:05:39;13.60;;;6.67;;
5867;SDS011;2960;49.142;7.768;2023-08-24T20:08:06;13.70;;;6.63;;